sensor_id;sensor_type;location;lat;lon;timestamp;temperature;humidity
62583;DHT22;48641;51.676;5.808;2022-09-09T00:12:32;23.60;55.20
62583;DHT22;48641;51.676;5.808;2022-09-09T00:15:33;23.60;55.10
62583;DHT22;48641;51.676;5.808;2022-09-09T00:23:40;23.50;55.20
62583;DHT22;48641;51.676;5.808;2022-09-09T00:28:55;23.50;55.30
62583;DHT22;48641;51.676;5.808;2022-09-09T00:31:28;23.50;55.20
62583;DHT22;48641;51.676;5.808;2022-09-09T00:33:55;23.50;55.30
62583;DHT22;48641;51.676;5.808;2022-09-09T00:36:25;23.50;55.30
62583;DHT22;48641;51.676;5.808;2022-09-09T00:38:59;23.50;55.30
62583;DHT22;48641;51.676;5.808;2022-09-09T00:44:34;23.50;55.30
62583;DHT22;48641;51.676;5.808;2022-09-09T00:47:04;23.50;55.30
62583;DHT22;48641;51.676;5.808;2022-09-09T00:50:09;23.50;55.30
62583;DHT22;48641;51.676;5.808;2022-09-09T00:52:47;23.50;55.20
62583;DHT22;48641;51.676;5.808;2022-09-09T00:55:39;23.50;55.30
62583;DHT22;48641;51.676;5.808;2022-09-09T00:58:08;23.50;55.20
62583;DHT22;48641;51.676;5.808;2022-09-09T01:03:20;23.50;55.30
62583;DHT22;48641;51.676;5.808;2022-09-09T01:10:59;23.40;55.30
62583;DHT22;48641;51.676;5.808;2022-09-09T01:13:31;23.40;55.30
62583;DHT22;48641;51.676;5.808;2022-09-09T01:16:01;23.40;55.30
62583;DHT22;48641;51.676;5.808;2022-09-09T01:18:37;23.40;55.30
62583;DHT22;48641;51.676;5.808;2022-09-09T01:26:41;23.40;55.40
62583;DHT22;48641;51.676;5.808;2022-09-09T01:29:09;23.40;55.40
62583;DHT22;48641;51.676;5.808;2022-09-09T01:34:22;23.40;55.40
62583;DHT22;48641;51.676;5.808;2022-09-09T01:37:03;23.40;55.50
62583;DHT22;48641;51.676;5.808;2022-09-09T01:39:32;23.40;55.30
62583;DHT22;48641;51.676;5.808;2022-09-09T01:41:58;23.40;55.30
62583;DHT22;48641;51.676;5.808;2022-09-09T01:44:25;23.40;55.40
62583;DHT22;48641;51.676;5.808;2022-09-09T01:46:51;23.40;55.30
62583;DHT22;48641;51.676;5.808;2022-09-09T01:49:18;23.40;55.20
62583;DHT22;48641;51.676;5.808;2022-09-09T01:51:46;23.40;55.20
62583;DHT22;48641;51.676;5.808;2022-09-09T01:54:13;23.40;55.30
62583;DHT22;48641;51.676;5.808;2022-09-09T02:00:00;23.40;55.20
62583;DHT22;48641;51.676;5.808;2022-09-09T02:02:35;23.40;55.20
62583;DHT22;48641;51.676;5.808;2022-09-09T02:07:49;23.30;55.30
62583;DHT22;48641;51.676;5.808;2022-09-09T02:10:21;23.30;55.40
62583;DHT22;48641;51.676;5.808;2022-09-09T02:13:05;23.30;55.40
62583;DHT22;48641;51.676;5.808;2022-09-09T02:15:46;23.30;55.40
62583;DHT22;48641;51.676;5.808;2022-09-09T02:18:14;23.20;55.50
62583;DHT22;48641;51.676;5.808;2022-09-09T02:20:43;23.20;55.50
62583;DHT22;48641;51.676;5.808;2022-09-09T02:23:11;23.20;55.50
62583;DHT22;48641;51.676;5.808;2022-09-09T02:25:40;23.30;55.50
62583;DHT22;48641;51.676;5.808;2022-09-09T02:28:07;23.30;55.50
62583;DHT22;48641;51.676;5.808;2022-09-09T02:30:35;23.30;55.50
62583;DHT22;48641;51.676;5.808;2022-09-09T02:33:04;23.30;55.50
62583;DHT22;48641;51.676;5.808;2022-09-09T02:35:32;23.20;55.40
62583;DHT22;48641;51.676;5.808;2022-09-09T02:38:02;23.20;55.40
62583;DHT22;48641;51.676;5.808;2022-09-09T02:40:29;23.30;55.40
62583;DHT22;48641;51.676;5.808;2022-09-09T02:42:55;23.20;55.50
62583;DHT22;48641;51.676;5.808;2022-09-09T02:45:25;23.20;55.40
62583;DHT22;48641;51.676;5.808;2022-09-09T02:50:32;23.20;55.50
62583;DHT22;48641;51.676;5.808;2022-09-09T02:55:39;23.20;55.50
62583;DHT22;48641;51.676;5.808;2022-09-09T02:58:08;23.20;55.40
62583;DHT22;48641;51.676;5.808;2022-09-09T03:00:36;23.20;55.50
62583;DHT22;48641;51.676;5.808;2022-09-09T03:03:07;23.20;55.50
62583;DHT22;48641;51.676;5.808;2022-09-09T03:05:34;23.20;55.50
62583;DHT22;48641;51.676;5.808;2022-09-09T03:07:59;23.20;55.60
62583;DHT22;48641;51.676;5.808;2022-09-09T03:10:25;23.20;55.50
62583;DHT22;48641;51.676;5.808;2022-09-09T03:12:51;23.20;55.50
62583;DHT22;48641;51.676;5.808;2022-09-09T03:15:16;23.20;55.50
62583;DHT22;48641;51.676;5.808;2022-09-09T03:17:42;23.20;55.40
62583;DHT22;48641;51.676;5.808;2022-09-09T03:20:08;23.20;55.40
62583;DHT22;48641;51.676;5.808;2022-09-09T03:22:34;23.20;55.40
62583;DHT22;48641;51.676;5.808;2022-09-09T03:25:00;23.20;55.40
62583;DHT22;48641;51.676;5.808;2022-09-09T03:27:26;23.20;55.40
62583;DHT22;48641;51.676;5.808;2022-09-09T03:29:51;23.20;55.30
62583;DHT22;48641;51.676;5.808;2022-09-09T03:32:18;23.20;55.30
62583;DHT22;48641;51.676;5.808;2022-09-09T03:34:44;23.20;55.40
62583;DHT22;48641;51.676;5.808;2022-09-09T03:37:10;23.20;55.40
62583;DHT22;48641;51.676;5.808;2022-09-09T03:39:36;23.10;55.30
62583;DHT22;48641;51.676;5.808;2022-09-09T03:42:01;23.10;55.40
62583;DHT22;48641;51.676;5.808;2022-09-09T03:44:31;23.10;55.40
62583;DHT22;48641;51.676;5.808;2022-09-09T03:46:57;23.10;55.40
62583;DHT22;48641;51.676;5.808;2022-09-09T03:49:25;23.10;55.40
62583;DHT22;48641;51.676;5.808;2022-09-09T03:51:51;23.10;55.50
62583;DHT22;48641;51.676;5.808;2022-09-09T03:54:17;23.10;55.60
62583;DHT22;48641;51.676;5.808;2022-09-09T03:56:42;23.00;55.60
62583;DHT22;48641;51.676;5.808;2022-09-09T03:59:08;23.00;55.60
62583;DHT22;48641;51.676;5.808;2022-09-09T04:01:34;23.00;55.60
62583;DHT22;48641;51.676;5.808;2022-09-09T04:04:00;23.10;55.60
62583;DHT22;48641;51.676;5.808;2022-09-09T04:06:28;23.10;55.50
62583;DHT22;48641;51.676;5.808;2022-09-09T04:08:54;23.10;55.50
62583;DHT22;48641;51.676;5.808;2022-09-09T04:11:20;23.10;55.50
62583;DHT22;48641;51.676;5.808;2022-09-09T04:13:46;23.10;55.50
62583;DHT22;48641;51.676;5.808;2022-09-09T04:16:12;23.10;55.50
62583;DHT22;48641;51.676;5.808;2022-09-09T04:18:41;23.10;55.50
62583;DHT22;48641;51.676;5.808;2022-09-09T04:21:06;23.10;55.50
62583;DHT22;48641;51.676;5.808;2022-09-09T04:23:33;23.00;55.50
62583;DHT22;48641;51.676;5.808;2022-09-09T04:26:00;23.10;55.60
62583;DHT22;48641;51.676;5.808;2022-09-09T04:28:32;23.00;55.50
62583;DHT22;48641;51.676;5.808;2022-09-09T04:31:04;23.00;55.50
62583;DHT22;48641;51.676;5.808;2022-09-09T04:33:30;23.00;55.50
62583;DHT22;48641;51.676;5.808;2022-09-09T04:35:56;23.00;55.50
62583;DHT22;48641;51.676;5.808;2022-09-09T04:38:22;23.00;55.50
62583;DHT22;48641;51.676;5.808;2022-09-09T04:40:49;23.00;55.90
62583;DHT22;48641;51.676;5.808;2022-09-09T04:43:17;23.00;55.60
62583;DHT22;48641;51.676;5.808;2022-09-09T04:45:46;23.00;55.60
62583;DHT22;48641;51.676;5.808;2022-09-09T04:48:11;23.00;55.60
62583;DHT22;48641;51.676;5.808;2022-09-09T04:50:37;23.00;55.60
62583;DHT22;48641;51.676;5.808;2022-09-09T04:53:04;23.00;56.50
62583;DHT22;48641;51.676;5.808;2022-09-09T04:55:30;23.00;55.50
62583;DHT22;48641;51.676;5.808;2022-09-09T04:57:56;23.00;55.50
62583;DHT22;48641;51.676;5.808;2022-09-09T05:00:23;23.00;55.50
62583;DHT22;48641;51.676;5.808;2022-09-09T05:02:49;23.00;55.40
62583;DHT22;48641;51.676;5.808;2022-09-09T05:05:14;23.00;55.40
62583;DHT22;48641;51.676;5.808;2022-09-09T05:07:40;23.00;55.40
62583;DHT22;48641;51.676;5.808;2022-09-09T05:10:07;22.90;55.40
62583;DHT22;48641;51.676;5.808;2022-09-09T05:12:32;22.90;55.40
62583;DHT22;48641;51.676;5.808;2022-09-09T05:14:58;22.90;55.50
62583;DHT22;48641;51.676;5.808;2022-09-09T05:17:24;22.90;55.50
62583;DHT22;48641;51.676;5.808;2022-09-09T05:19:49;22.90;55.50
62583;DHT22;48641;51.676;5.808;2022-09-09T05:22:21;22.90;55.50
62583;DHT22;48641;51.676;5.808;2022-09-09T05:24:48;22.90;55.50
62583;DHT22;48641;51.676;5.808;2022-09-09T05:27:18;22.80;55.50
62583;DHT22;48641;51.676;5.808;2022-09-09T05:29:47;22.90;55.60
62583;DHT22;48641;51.676;5.808;2022-09-09T05:32:13;22.80;55.60
62583;DHT22;48641;51.676;5.808;2022-09-09T05:34:40;22.80;55.60
62583;DHT22;48641;51.676;5.808;2022-09-09T05:37:06;22.80;55.60
62583;DHT22;48641;51.676;5.808;2022-09-09T05:39:33;22.80;55.60
62583;DHT22;48641;51.676;5.808;2022-09-09T05:41:59;22.90;55.60
62583;DHT22;48641;51.676;5.808;2022-09-09T05:44:24;22.90;55.60
62583;DHT22;48641;51.676;5.808;2022-09-09T05:46:52;22.90;55.50
62583;DHT22;48641;51.676;5.808;2022-09-09T05:49:19;22.90;55.50
62583;DHT22;48641;51.676;5.808;2022-09-09T05:51:45;22.90;55.50
62583;DHT22;48641;51.676;5.808;2022-09-09T05:54:10;22.90;55.50
62583;DHT22;48641;51.676;5.808;2022-09-09T05:56:37;22.90;55.50
62583;DHT22;48641;51.676;5.808;2022-09-09T05:59:02;22.80;55.40
62583;DHT22;48641;51.676;5.808;2022-09-09T06:01:31;22.80;55.40
62583;DHT22;48641;51.676;5.808;2022-09-09T06:03:56;22.80;55.40
62583;DHT22;48641;51.676;5.808;2022-09-09T06:06:25;22.80;55.40
62583;DHT22;48641;51.676;5.808;2022-09-09T06:08:52;22.80;55.50
62583;DHT22;48641;51.676;5.808;2022-09-09T06:11:39;22.80;55.50
62583;DHT22;48641;51.676;5.808;2022-09-09T06:14:05;22.70;55.50
62583;DHT22;48641;51.676;5.808;2022-09-09T06:16:32;22.80;55.60
62583;DHT22;48641;51.676;5.808;2022-09-09T06:18:59;22.80;55.60
62583;DHT22;48641;51.676;5.808;2022-09-09T06:21:30;22.70;55.60
62583;DHT22;48641;51.676;5.808;2022-09-09T06:23:56;22.70;55.60
62583;DHT22;48641;51.676;5.808;2022-09-09T06:26:30;22.70;55.60
62583;DHT22;48641;51.676;5.808;2022-09-09T06:28:56;22.70;55.60
62583;DHT22;48641;51.676;5.808;2022-09-09T06:31:28;22.70;55.70
62583;DHT22;48641;51.676;5.808;2022-09-09T06:33:56;22.70;55.70
62583;DHT22;48641;51.676;5.808;2022-09-09T06:36:24;22.70;55.70
62583;DHT22;48641;51.676;5.808;2022-09-09T06:38:50;22.70;55.60
62583;DHT22;48641;51.676;5.808;2022-09-09T06:41:18;22.70;55.60
62583;DHT22;48641;51.676;5.808;2022-09-09T06:43:45;22.70;55.60
62583;DHT22;48641;51.676;5.808;2022-09-09T06:46:19;22.70;55.60
62583;DHT22;48641;51.676;5.808;2022-09-09T06:48:47;22.70;55.60
62583;DHT22;48641;51.676;5.808;2022-09-09T06:51:18;22.70;55.70
62583;DHT22;48641;51.676;5.808;2022-09-09T06:53:45;22.70;55.70
62583;DHT22;48641;51.676;5.808;2022-09-09T06:58:40;22.70;55.80
62583;DHT22;48641;51.676;5.808;2022-09-09T07:01:08;22.70;55.90
62583;DHT22;48641;51.676;5.808;2022-09-09T07:03:35;22.70;55.80
62583;DHT22;48641;51.676;5.808;2022-09-09T07:06:03;22.70;55.80
62583;DHT22;48641;51.676;5.808;2022-09-09T07:08:33;22.70;56.30
62583;DHT22;48641;51.676;5.808;2022-09-09T07:11:07;22.70;55.90
62583;DHT22;48641;51.676;5.808;2022-09-09T07:13:33;22.70;56.00
62583;DHT22;48641;51.676;5.808;2022-09-09T07:16:10;22.60;56.00
62583;DHT22;48641;51.676;5.808;2022-09-09T07:18:36;22.70;56.00
62583;DHT22;48641;51.676;5.808;2022-09-09T07:21:03;22.60;56.00
62583;DHT22;48641;51.676;5.808;2022-09-09T07:23:29;22.60;56.00
62583;DHT22;48641;51.676;5.808;2022-09-09T07:25:56;22.60;56.00
62583;DHT22;48641;51.676;5.808;2022-09-09T07:28:23;22.70;56.00
62583;DHT22;48641;51.676;5.808;2022-09-09T07:30:56;22.60;56.00
62583;DHT22;48641;51.676;5.808;2022-09-09T07:33:22;22.70;55.90
62583;DHT22;48641;51.676;5.808;2022-09-09T07:35:48;22.60;56.00
62583;DHT22;48641;51.676;5.808;2022-09-09T07:38:14;22.60;56.00
62583;DHT22;48641;51.676;5.808;2022-09-09T07:40:40;22.60;56.00
62583;DHT22;48641;51.676;5.808;2022-09-09T07:43:06;22.60;56.00
62583;DHT22;48641;51.676;5.808;2022-09-09T07:45:34;22.60;56.00
62583;DHT22;48641;51.676;5.808;2022-09-09T07:48:03;22.60;56.00
62583;DHT22;48641;51.676;5.808;2022-09-09T07:50:29;22.60;56.00
62583;DHT22;48641;51.676;5.808;2022-09-09T07:52:55;22.60;56.00
62583;DHT22;48641;51.676;5.808;2022-09-09T07:55:21;22.60;56.10
62583;DHT22;48641;51.676;5.808;2022-09-09T07:57:50;22.60;56.10
62583;DHT22;48641;51.676;5.808;2022-09-09T08:00:16;22.60;56.10
62583;DHT22;48641;51.676;5.808;2022-09-09T08:02:42;22.50;56.10
62583;DHT22;48641;51.676;5.808;2022-09-09T08:05:07;22.60;56.10
62583;DHT22;48641;51.676;5.808;2022-09-09T08:07:34;22.60;56.20
62583;DHT22;48641;51.676;5.808;2022-09-09T08:09:59;22.60;56.10
62583;DHT22;48641;51.676;5.808;2022-09-09T08:12:25;22.60;56.00
62583;DHT22;48641;51.676;5.808;2022-09-09T08:14:50;22.60;56.00
62583;DHT22;48641;51.676;5.808;2022-09-09T08:17:17;22.60;56.00
62583;DHT22;48641;51.676;5.808;2022-09-09T08:19:42;22.60;55.90
62583;DHT22;48641;51.676;5.808;2022-09-09T08:22:09;22.60;55.90
62583;DHT22;48641;51.676;5.808;2022-09-09T08:24:35;22.70;55.90
62583;DHT22;48641;51.676;5.808;2022-09-09T08:27:01;22.60;55.80
62583;DHT22;48641;51.676;5.808;2022-09-09T08:29:26;22.60;55.80
62583;DHT22;48641;51.676;5.808;2022-09-09T08:31:55;22.60;55.80
62583;DHT22;48641;51.676;5.808;2022-09-09T08:34:24;22.70;55.90
62583;DHT22;48641;51.676;5.808;2022-09-09T08:36:52;22.60;55.80
62583;DHT22;48641;51.676;5.808;2022-09-09T08:39:19;22.60;55.80
62583;DHT22;48641;51.676;5.808;2022-09-09T08:42:22;22.60;55.80
62583;DHT22;48641;51.676;5.808;2022-09-09T08:45:18;22.70;55.70
62583;DHT22;48641;51.676;5.808;2022-09-09T08:47:56;22.60;55.90
62583;DHT22;48641;51.676;5.808;2022-09-09T08:57:53;22.60;56.00
62583;DHT22;48641;51.676;5.808;2022-09-09T09:00:20;22.60;55.90
62583;DHT22;48641;51.676;5.808;2022-09-09T09:05:33;22.70;55.90
62583;DHT22;48641;51.676;5.808;2022-09-09T09:10:45;22.60;56.80
62583;DHT22;48641;51.676;5.808;2022-09-09T09:13:29;22.60;55.80
62583;DHT22;48641;51.676;5.808;2022-09-09T09:16:09;22.60;55.90
62583;DHT22;48641;51.676;5.808;2022-09-09T09:18:37;22.60;55.90
62583;DHT22;48641;51.676;5.808;2022-09-09T09:23:56;22.60;55.90
62583;DHT22;48641;51.676;5.808;2022-09-09T09:26:28;22.60;56.00
62583;DHT22;48641;51.676;5.808;2022-09-09T09:28:56;22.60;56.00
62583;DHT22;48641;51.676;5.808;2022-09-09T09:31:22;22.60;56.00
62583;DHT22;48641;51.676;5.808;2022-09-09T09:33:53;22.60;56.00
62583;DHT22;48641;51.676;5.808;2022-09-09T09:39:05;22.70;55.90
62583;DHT22;48641;51.676;5.808;2022-09-09T09:43:56;22.70;55.80
62583;DHT22;48641;51.676;5.808;2022-09-09T09:46:24;22.60;55.70
62583;DHT22;48641;51.676;5.808;2022-09-09T09:49:03;22.70;55.60
62583;DHT22;48641;51.676;5.808;2022-09-09T09:51:32;22.60;55.70
62583;DHT22;48641;51.676;5.808;2022-09-09T09:54:37;22.50;55.80
62583;DHT22;48641;51.676;5.808;2022-09-09T09:57:16;22.60;55.80
62583;DHT22;48641;51.676;5.808;2022-09-09T09:59:42;22.50;55.80
62583;DHT22;48641;51.676;5.808;2022-09-09T10:02:22;22.50;55.90
62583;DHT22;48641;51.676;5.808;2022-09-09T10:05:02;22.50;55.80
62583;DHT22;48641;51.676;5.808;2022-09-09T10:07:28;22.50;55.80
62583;DHT22;48641;51.676;5.808;2022-09-09T10:09:57;22.50;55.90
62583;DHT22;48641;51.676;5.808;2022-09-09T10:12:29;22.50;55.90
62583;DHT22;48641;51.676;5.808;2022-09-09T10:17:58;22.60;55.90
62583;DHT22;48641;51.676;5.808;2022-09-09T10:20:45;22.60;55.80
62583;DHT22;48641;51.676;5.808;2022-09-09T10:28:31;22.60;55.80
62583;DHT22;48641;51.676;5.808;2022-09-09T10:34:06;22.60;55.70
62583;DHT22;48641;51.676;5.808;2022-09-09T10:36:45;22.60;55.80
62583;DHT22;48641;51.676;5.808;2022-09-09T10:39:35;22.50;55.70
62583;DHT22;48641;51.676;5.808;2022-09-09T10:42:07;22.60;55.70
62583;DHT22;48641;51.676;5.808;2022-09-09T10:52:50;22.50;55.60
62583;DHT22;48641;51.676;5.808;2022-09-09T10:55:26;22.60;55.70
62583;DHT22;48641;51.676;5.808;2022-09-09T10:57:56;22.50;55.80
62583;DHT22;48641;51.676;5.808;2022-09-09T11:00:35;22.50;55.80
62583;DHT22;48641;51.676;5.808;2022-09-09T11:06:05;22.50;55.90
62583;DHT22;48641;51.676;5.808;2022-09-09T11:08:34;22.50;55.90
62583;DHT22;48641;51.676;5.808;2022-09-09T11:11:20;22.50;55.90
62583;DHT22;48641;51.676;5.808;2022-09-09T11:13:57;22.50;55.80
62583;DHT22;48641;51.676;5.808;2022-09-09T11:16:27;22.50;55.90
62583;DHT22;48641;51.676;5.808;2022-09-09T11:19:15;22.50;55.90
62583;DHT22;48641;51.676;5.808;2022-09-09T11:21:49;22.50;55.90
62583;DHT22;48641;51.676;5.808;2022-09-09T11:27:00;22.50;56.30
62583;DHT22;48641;51.676;5.808;2022-09-09T11:35:31;22.40;56.20
62583;DHT22;48641;51.676;5.808;2022-09-09T11:40:57;22.50;57.40
62583;DHT22;48641;51.676;5.808;2022-09-09T11:43:31;22.50;56.50
62583;DHT22;48641;51.676;5.808;2022-09-09T11:46:00;22.50;56.50
62583;DHT22;48641;51.676;5.808;2022-09-09T11:51:08;22.50;56.60
62583;DHT22;48641;51.676;5.808;2022-09-09T11:53:36;22.50;56.70
62583;DHT22;48641;51.676;5.808;2022-09-09T11:56:13;22.50;56.70
62583;DHT22;48641;51.676;5.808;2022-09-09T11:59:03;22.50;56.70
62583;DHT22;48641;51.676;5.808;2022-09-09T12:01:37;22.50;56.70
62583;DHT22;48641;51.676;5.808;2022-09-09T12:04:13;22.60;56.80
62583;DHT22;48641;51.676;5.808;2022-09-09T12:06:46;22.60;56.80
62583;DHT22;48641;51.676;5.808;2022-09-09T12:12:26;22.60;56.80
62583;DHT22;48641;51.676;5.808;2022-09-09T12:17:23;22.60;57.10
62583;DHT22;48641;51.676;5.808;2022-09-09T12:20:06;22.60;57.00
62583;DHT22;48641;51.676;5.808;2022-09-09T12:28:22;22.50;56.80
62583;DHT22;48641;51.676;5.808;2022-09-09T12:31:39;22.60;56.80
62583;DHT22;48641;51.676;5.808;2022-09-09T12:33:43;22.60;56.80
62583;DHT22;48641;51.676;5.808;2022-09-09T12:36:30;22.60;56.80
62583;DHT22;48641;51.676;5.808;2022-09-09T12:38:59;22.60;56.70
62583;DHT22;48641;51.676;5.808;2022-09-09T12:41:35;22.60;56.80
62583;DHT22;48641;51.676;5.808;2022-09-09T12:44:09;22.60;56.80
62583;DHT22;48641;51.676;5.808;2022-09-09T12:46:41;22.60;56.90
62583;DHT22;48641;51.676;5.808;2022-09-09T12:51:51;22.60;56.90
62583;DHT22;48641;51.676;5.808;2022-09-09T12:54:18;22.60;57.00
62583;DHT22;48641;51.676;5.808;2022-09-09T12:56:46;22.60;57.10
62583;DHT22;48641;51.676;5.808;2022-09-09T12:59:34;22.60;57.10
62583;DHT22;48641;51.676;5.808;2022-09-09T13:02:00;22.60;57.00
62583;DHT22;48641;51.676;5.808;2022-09-09T13:04:26;22.60;57.10
62583;DHT22;48641;51.676;5.808;2022-09-09T13:06:51;22.60;57.10
62583;DHT22;48641;51.676;5.808;2022-09-09T13:09:20;22.60;57.10
62583;DHT22;48641;51.676;5.808;2022-09-09T13:11:52;22.60;57.00
62583;DHT22;48641;51.676;5.808;2022-09-09T13:14:33;22.60;57.00
62583;DHT22;48641;51.676;5.808;2022-09-09T13:17:05;22.70;57.10
62583;DHT22;48641;51.676;5.808;2022-09-09T13:19:37;22.60;57.00
62583;DHT22;48641;51.676;5.808;2022-09-09T13:22:36;22.70;57.00
62583;DHT22;48641;51.676;5.808;2022-09-09T13:27:41;22.70;56.90
62583;DHT22;48641;51.676;5.808;2022-09-09T13:30:22;22.70;56.90
62583;DHT22;48641;51.676;5.808;2022-09-09T13:33:00;22.70;56.80
62583;DHT22;48641;51.676;5.808;2022-09-09T13:35:26;22.70;56.80
62583;DHT22;48641;51.676;5.808;2022-09-09T13:37:52;22.70;56.80
62583;DHT22;48641;51.676;5.808;2022-09-09T13:40:21;22.60;56.80
62583;DHT22;48641;51.676;5.808;2022-09-09T13:42:55;22.70;57.70
62583;DHT22;48641;51.676;5.808;2022-09-09T13:45:24;22.70;56.70
62583;DHT22;48641;51.676;5.808;2022-09-09T13:47:53;22.70;57.30
62583;DHT22;48641;51.676;5.808;2022-09-09T13:52:47;22.60;57.70
62583;DHT22;48641;51.676;5.808;2022-09-09T13:55:12;22.60;57.70
62583;DHT22;48641;51.676;5.808;2022-09-09T13:57:38;22.60;57.80
62583;DHT22;48641;51.676;5.808;2022-09-09T14:00:05;22.60;57.90
62583;DHT22;48641;51.676;5.808;2022-09-09T14:02:32;22.60;57.70
62583;DHT22;48641;51.676;5.808;2022-09-09T14:04:58;22.60;57.70
62583;DHT22;48641;51.676;5.808;2022-09-09T14:07:24;22.70;57.90
62583;DHT22;48641;51.676;5.808;2022-09-09T14:09:50;22.70;58.00
62583;DHT22;48641;51.676;5.808;2022-09-09T14:12:17;22.70;58.00
62583;DHT22;48641;51.676;5.808;2022-09-09T14:14:43;22.70;58.00
62583;DHT22;48641;51.676;5.808;2022-09-09T14:17:09;22.70;58.00
62583;DHT22;48641;51.676;5.808;2022-09-09T14:19:35;22.70;57.80
62583;DHT22;48641;51.676;5.808;2022-09-09T14:22:02;22.70;57.90
62583;DHT22;48641;51.676;5.808;2022-09-09T14:24:28;22.70;58.00
62583;DHT22;48641;51.676;5.808;2022-09-09T14:26:54;22.70;58.00
62583;DHT22;48641;51.676;5.808;2022-09-09T14:29:20;22.70;58.00
62583;DHT22;48641;51.676;5.808;2022-09-09T14:31:46;22.70;58.20
62583;DHT22;48641;51.676;5.808;2022-09-09T14:34:11;22.70;58.20
62583;DHT22;48641;51.676;5.808;2022-09-09T14:36:37;22.70;58.30
62583;DHT22;48641;51.676;5.808;2022-09-09T14:39:04;22.70;58.30
62583;DHT22;48641;51.676;5.808;2022-09-09T14:41:30;22.70;58.40
62583;DHT22;48641;51.676;5.808;2022-09-09T14:43:55;22.70;58.20
62583;DHT22;48641;51.676;5.808;2022-09-09T14:46:21;22.80;58.30
62583;DHT22;48641;51.676;5.808;2022-09-09T14:48:47;22.80;58.30
62583;DHT22;48641;51.676;5.808;2022-09-09T14:51:21;22.80;58.40
62583;DHT22;48641;51.676;5.808;2022-09-09T14:53:56;22.80;58.40
62583;DHT22;48641;51.676;5.808;2022-09-09T14:56:24;22.80;58.50
62583;DHT22;48641;51.676;5.808;2022-09-09T14:58:52;22.70;58.50
62583;DHT22;48641;51.676;5.808;2022-09-09T15:01:19;22.70;58.30
62583;DHT22;48641;51.676;5.808;2022-09-09T15:04:12;22.60;58.70
62583;DHT22;48641;51.676;5.808;2022-09-09T15:06:38;22.70;58.60
62583;DHT22;48641;51.676;5.808;2022-09-09T15:09:05;22.60;58.80
62583;DHT22;48641;51.676;5.808;2022-09-09T15:11:33;22.60;58.80
62583;DHT22;48641;51.676;5.808;2022-09-09T15:14:03;22.70;58.80
62583;DHT22;48641;51.676;5.808;2022-09-09T15:16:29;22.70;58.80
62583;DHT22;48641;51.676;5.808;2022-09-09T15:18:57;22.70;58.80
62583;DHT22;48641;51.676;5.808;2022-09-09T15:21:24;22.70;58.60
62583;DHT22;48641;51.676;5.808;2022-09-09T15:23:50;22.70;58.70
62583;DHT22;48641;51.676;5.808;2022-09-09T15:26:17;22.80;58.50
62583;DHT22;48641;51.676;5.808;2022-09-09T15:28:44;22.70;58.40
62583;DHT22;48641;51.676;5.808;2022-09-09T15:31:19;22.80;58.40
62583;DHT22;48641;51.676;5.808;2022-09-09T15:33:56;22.80;58.30
62583;DHT22;48641;51.676;5.808;2022-09-09T15:36:33;22.80;58.30
62583;DHT22;48641;51.676;5.808;2022-09-09T15:39:00;22.70;58.30
62583;DHT22;48641;51.676;5.808;2022-09-09T15:41:27;22.70;59.20
62583;DHT22;48641;51.676;5.808;2022-09-09T15:43:55;22.80;58.20
62583;DHT22;48641;51.676;5.808;2022-09-09T15:46:33;22.70;58.10
62583;DHT22;48641;51.676;5.808;2022-09-09T15:49:13;22.70;58.00
62583;DHT22;48641;51.676;5.808;2022-09-09T15:51:40;22.70;58.00
62583;DHT22;48641;51.676;5.808;2022-09-09T15:54:07;22.70;58.10
62583;DHT22;48641;51.676;5.808;2022-09-09T15:56:33;22.70;58.00
62583;DHT22;48641;51.676;5.808;2022-09-09T15:59:00;22.70;58.00
62583;DHT22;48641;51.676;5.808;2022-09-09T16:01:27;22.70;58.00
62583;DHT22;48641;51.676;5.808;2022-09-09T16:03:53;22.80;58.10
62583;DHT22;48641;51.676;5.808;2022-09-09T16:06:20;22.80;58.00
62583;DHT22;48641;51.676;5.808;2022-09-09T16:08:48;22.70;57.90
62583;DHT22;48641;51.676;5.808;2022-09-09T16:11:20;22.70;57.90
62583;DHT22;48641;51.676;5.808;2022-09-09T16:13:48;22.70;57.80
62583;DHT22;48641;51.676;5.808;2022-09-09T16:16:15;22.70;57.90
62583;DHT22;48641;51.676;5.808;2022-09-09T16:18:46;22.70;57.80
62583;DHT22;48641;51.676;5.808;2022-09-09T16:21:18;22.70;57.80
62583;DHT22;48641;51.676;5.808;2022-09-09T16:23:44;22.70;58.00
62583;DHT22;48641;51.676;5.808;2022-09-09T16:26:15;22.70;58.00
62583;DHT22;48641;51.676;5.808;2022-09-09T16:28:41;22.70;58.00
62583;DHT22;48641;51.676;5.808;2022-09-09T16:31:09;22.70;58.00
62583;DHT22;48641;51.676;5.808;2022-09-09T16:33:36;22.70;57.90
62583;DHT22;48641;51.676;5.808;2022-09-09T16:36:09;22.70;58.00
62583;DHT22;48641;51.676;5.808;2022-09-09T16:38:36;22.70;57.90
62583;DHT22;48641;51.676;5.808;2022-09-09T16:41:03;22.70;58.00
62583;DHT22;48641;51.676;5.808;2022-09-09T16:43:31;22.70;57.90
62583;DHT22;48641;51.676;5.808;2022-09-09T16:45:57;22.70;57.90
62583;DHT22;48641;51.676;5.808;2022-09-09T16:48:26;22.70;57.80
62583;DHT22;48641;51.676;5.808;2022-09-09T16:50:52;22.70;57.90
62583;DHT22;48641;51.676;5.808;2022-09-09T16:53:18;22.70;58.00
62583;DHT22;48641;51.676;5.808;2022-09-09T16:55:43;22.70;57.90
62583;DHT22;48641;51.676;5.808;2022-09-09T16:58:12;22.70;58.00
62583;DHT22;48641;51.676;5.808;2022-09-09T17:00:38;22.70;57.90
62583;DHT22;48641;51.676;5.808;2022-09-09T17:03:04;22.70;57.90
62583;DHT22;48641;51.676;5.808;2022-09-09T17:05:29;22.70;58.00
62583;DHT22;48641;51.676;5.808;2022-09-09T17:07:55;22.60;57.80
62583;DHT22;48641;51.676;5.808;2022-09-09T17:10:24;22.60;57.80
62583;DHT22;48641;51.676;5.808;2022-09-09T17:12:50;22.60;57.90
62583;DHT22;48641;51.676;5.808;2022-09-09T17:15:16;22.50;58.10
62583;DHT22;48641;51.676;5.808;2022-09-09T17:17:44;22.60;58.10
62583;DHT22;48641;51.676;5.808;2022-09-09T17:20:10;22.60;58.00
62583;DHT22;48641;51.676;5.808;2022-09-09T17:22:36;22.60;57.90
62583;DHT22;48641;51.676;5.808;2022-09-09T17:25:02;22.60;57.90
62583;DHT22;48641;51.676;5.808;2022-09-09T17:27:28;22.60;57.80
62583;DHT22;48641;51.676;5.808;2022-09-09T17:29:57;22.60;57.80
62583;DHT22;48641;51.676;5.808;2022-09-09T17:32:22;22.60;57.80
62583;DHT22;48641;51.676;5.808;2022-09-09T17:34:48;22.60;57.80
62583;DHT22;48641;51.676;5.808;2022-09-09T17:37:14;22.60;57.80
62583;DHT22;48641;51.676;5.808;2022-09-09T17:39:39;22.60;57.80
62583;DHT22;48641;51.676;5.808;2022-09-09T17:42:05;22.60;57.80
62583;DHT22;48641;51.676;5.808;2022-09-09T17:44:32;22.60;57.80
62583;DHT22;48641;51.676;5.808;2022-09-09T17:46:58;22.60;57.80
62583;DHT22;48641;51.676;5.808;2022-09-09T17:49:25;22.60;57.80
62583;DHT22;48641;51.676;5.808;2022-09-09T17:51:51;22.60;57.80
62583;DHT22;48641;51.676;5.808;2022-09-09T17:54:19;22.60;57.80